Welkom op Weerpagina Nieuwendam !!





My webcam Meer informatie My webcam


Onweer radar Meer informatie blitzortung!


Regen radar  rain snow radar


Bezoek onze andere website:

Template documentation
and downloads

And another site



METAR rapporten vliegvelden

   
EHAM - Amsterdam/Schiph, Netherlands
Afstand tot: ONO 18 km
Gewijzigd: 18-10-2017 12:55
Helder  
Helder  
   Wind: NO 3.6 m/s
Wind: NO 3.6 m/s
Temperatuur: 17°C
Dauwpunt: 12°C
Vochtigheid: 73%
Barometer: 1013 hPa
Zicht: meer dan 10 km
Bewolking: Helder ft
EHAM 181055Z 04007KT CAVOK 17/12 Q1013 NOSIG
EHRD - Rotterdam Airpor, Netherlands
Afstand tot: ZZW 32 km
Gewijzigd: 18-10-2017 12:55
Helder  
Helder  
   Wind: Oosten 2.1 m/s
Wind: Oosten 2.1 m/s
Temperatuur: 16°C
Dauwpunt: 13°C
Vochtigheid: 83%
Barometer: 1013 hPa
Bewolking: Clear
Zicht: 7 km
Bewolking: Helder ft
EHRD 181055Z AUTO 09004KT 040V140 7000 NCD 16/13 Q1013 REUP BECMG 9999
EHSC - Goeree Le Sea, Netherlands
Afstand tot: WZW 70 km
Gewijzigd: 18-10-2017 11:55
  
  
   Wind: OZO 3.6 m/s<br />Gust to 3.6 m/s
Wind: OZO 3.6 m/s
Gust to 3.6 m/s
Temperatuur: 14°C
Dauwpunt: 12°C
Vochtigheid: 88%
Barometer: 1012 hPa
Zicht: 6 km
EHSC 180955Z AUTO 11007G08KT 6000 ///////// 14/12 Q1012 W16/H4
EHKD - De Kooy (navy), Netherlands
Afstand tot: N 77 km
Gewijzigd: 18-10-2017 12:55
Bewolking  
Bewolking  
   Wind: Oosten 4.1 m/s
Wind: Oosten 4.1 m/s
Temperatuur: 14°C
Dauwpunt: 11°C
Vochtigheid: 82%
Barometer: 1014 hPa
Bewolking: Overcast
Zicht: meer dan 10 km
Bewolking: Bewolking 3600 ft
EHKD 181055Z AUTO 09008KT 9999 OVC036 14/11 Q1014 BLU 08007KT 9999 FEW010 BKN030
EHGR - Gilze-Rijen Rnla, Netherlands
Afstand tot: ZZO 78 km
Gewijzigd: 18-10-2017 12:55
Nevel, Grotendeels bewolkt  
Nevel, Grotendeels bewolkt  
   Wind: varieert 1.5 m/s
Wind: varieert 1.5 m/s
Temperatuur: 17°C
Dauwpunt: 13°C
Vochtigheid: 77%
Barometer: 1013 hPa
Bewolking: Mostly Cloudy
Zicht: 8 km
Bewolking: Grotendeels bewolkt 30000 ft
EHGR 181055Z AUTO VRB03KT 8000 BR BKN300 17/13 Q1013 BLU 19006KT CAVOK
EHQE - Hoorn-A Sea, Netherlands
Afstand tot: NNW 81 km
Gewijzigd: 18-10-2017 12:25
  
  
   Wind: Kalm
Wind: Kalm
EHQE 181025Z AUTO ///12KT 9999 OVC022 14/10 Q1014
EHPG - P11-B Sea, Netherlands
Afstand tot: W 84 km
Gewijzigd: 18-10-2017 12:25
Grotendeels bewolkt  
Grotendeels bewolkt  
   Wind: ONO 6.7 m/s
Wind: ONO 6.7 m/s
Bewolking: Mostly Cloudy
Zicht: meer dan 10 km
Bewolking: Licht bewolkt 900 ft,
Gedeeltelijk bewolkt 1100 ft,
Grotendeels bewolkt 1300 ft
EHPG 181025Z AUTO 06013KT 9999 FEW009 SCT011 BKN013 15/// Q1013
EHWO - Woensdrecht Rnla, Netherlands
Afstand tot: Z 89 km
Gewijzigd: 18-10-2017 12:55
Helder  
Helder  
   Wind: ZZW 2.1 m/s
Wind: ZZW 2.1 m/s
Temperatuur: 17°C
Dauwpunt: 13°C
Vochtigheid: 77%
Barometer: 1012 hPa
Bewolking: Clear
Zicht: meer dan 10 km
Bewolking: Helder ft
EHWO 181055Z AUTO 20004KT 150V260 9999 NCD 17/13 Q1012 BLU 17004KT 8000 NSC
 

Script ontwikkeld door  Saratoga-weather.org Aangepast voor de template door  Weerstation Leuven

U vindt ons ook hier:

UK Metoffice

European Weather Network

WeatherCloud

Weather Underground

Benelux Weer Netwerk

AWEKAS

Citizen Weather Observer Program (CWOP)

Apparatuur in gebruik:

Weerstation
Davis VP2

Weerprogramma
Weather Display

Weercomputer
My Computer

Davis VP2

Weather Display

My Computer